Blue River, Oregon
Current Conditions -  °F | °C
As of 11:54 PM on Thursday 23 Oct 2014 (Local Time) from KEUG Reporting Station
Scattered Clouds Scattered Clouds  
Wind Chill: 52°   Ceiling: Unl
Heat Index: 52°   Visibility: 10mi
Dew Point: 49°   Wind: 7mph
Humidity: 89%   Direction: 180°S
Pressure: 30.01"   Gusts: NA
Location:  44.15°N, 122.34°W
Report Text: KEUG 240654Z AUTO 18006KT 10SM SCT100 11/09 A3001 RMK AO2 SLP163 T01110094
Loading
Personal Weather Stations






























Interactive Weather Map
Tropical Storm Tracking
New forecast layout! Learn more

10-Day Weather Forecast

Advertisements
Track Severe Weather on mobile